createdAt,value
2023-03-18T00:00:45.570Z,10.76
2023-03-18T00:01:45.573Z,10.76
2023-03-18T00:02:45.738Z,10.79
2023-03-18T00:03:45.603Z,10.82
2023-03-18T00:04:45.527Z,10.82
2023-03-18T00:05:45.541Z,10.84
2023-03-18T00:06:45.482Z,10.85
2023-03-18T00:07:45.542Z,10.84
2023-03-18T00:08:45.494Z,10.85
2023-03-18T00:09:45.480Z,10.84
2023-03-18T00:10:45.438Z,10.85
2023-03-18T00:11:45.446Z,10.85
2023-03-18T00:12:45.413Z,10.85
2023-03-18T00:13:45.441Z,10.85
2023-03-18T00:14:45.371Z,10.85
2023-03-18T00:15:45.421Z,10.84
2023-03-18T00:16:45.348Z,10.82
2023-03-18T00:17:45.376Z,10.84
2023-03-18T00:18:45.472Z,10.85
2023-03-18T00:19:45.359Z,10.85
2023-03-18T00:20:45.340Z,10.85
2023-03-18T00:21:45.305Z,10.88
2023-03-18T00:22:45.268Z,10.88
2023-03-18T00:23:45.292Z,10.91
2023-03-18T00:24:45.271Z,10.91
2023-03-18T00:25:45.254Z,10.89
2023-03-18T00:26:46.198Z,10.91
2023-03-18T00:27:45.234Z,10.89
2023-03-18T00:28:45.206Z,10.89
2023-03-18T00:29:45.212Z,10.88
2023-03-18T00:30:45.165Z,10.86
2023-03-18T00:31:45.271Z,10.86
2023-03-18T00:32:45.181Z,10.85
2023-03-18T00:33:45.158Z,10.85
2023-03-18T00:34:45.117Z,10.81
2023-03-18T00:35:45.188Z,10.81
2023-03-18T00:36:45.115Z,10.76
2023-03-18T00:37:45.104Z,10.71
2023-03-18T00:38:45.113Z,10.67
2023-03-18T00:39:45.088Z,10.66
2023-03-18T00:40:45.047Z,10.63
2023-03-18T00:41:45.083Z,10.61
2023-03-18T00:42:45.033Z,10.59
2023-03-18T00:43:45.062Z,10.56
2023-03-18T00:44:44.984Z,10.56
2023-03-18T00:45:44.997Z,10.56
2023-03-18T00:46:45.050Z,10.52
2023-03-18T00:47:44.975Z,10.51
2023-03-18T00:48:44.932Z,10.47
2023-03-18T00:49:44.956Z,10.44
2023-03-18T00:50:44.913Z,10.42
2023-03-18T00:51:44.957Z,10.42
2023-03-18T00:52:44.872Z,10.41
2023-03-18T00:53:44.899Z,10.40
2023-03-18T00:54:44.855Z,10.38
2023-03-18T00:55:44.870Z,10.38
2023-03-18T00:56:44.849Z,10.34
2023-03-18T00:57:44.830Z,10.33
2023-03-18T00:58:44.799Z,10.32
2023-03-18T00:59:44.794Z,10.33
2023-03-18T01:00:44.803Z,10.33
2023-03-18T01:01:44.847Z,10.36
2023-03-18T01:02:44.734Z,10.36
2023-03-18T01:03:44.777Z,10.38
2023-03-18T01:04:44.714Z,10.40
2023-03-18T01:05:44.724Z,10.41
2023-03-18T01:06:44.713Z,10.44
2023-03-18T01:07:44.704Z,10.44
2023-03-18T01:08:44.656Z,10.47
2023-03-18T01:09:44.703Z,10.47
2023-03-18T01:10:44.658Z,10.52
2023-03-18T01:11:44.642Z,10.53
2023-03-18T01:12:44.634Z,10.55
2023-03-18T01:13:44.632Z,10.56
2023-03-18T01:14:44.586Z,10.59
2023-03-18T01:15:44.581Z,10.56
2023-03-18T01:16:44.595Z,10.60
2023-03-18T01:17:44.563Z,10.61
2023-03-18T01:18:44.547Z,10.61
2023-03-18T01:19:44.554Z,10.61
2023-03-18T01:20:44.512Z,10.60
2023-03-18T01:21:44.519Z,10.61
2023-03-18T01:22:44.474Z,10.61
2023-03-18T01:23:44.517Z,10.63
2023-03-18T01:24:44.439Z,10.63
2023-03-18T01:25:44.461Z,10.63
2023-03-18T01:26:44.424Z,10.64
2023-03-18T01:27:44.453Z,10.66
2023-03-18T01:28:44.411Z,10.68
2023-03-18T01:29:44.422Z,10.68
2023-03-18T01:30:44.360Z,10.68
2023-03-18T01:31:44.448Z,10.68
2023-03-18T01:32:44.372Z,10.71
2023-03-18T01:33:44.374Z,10.71
2023-03-18T01:34:44.323Z,10.73
2023-03-18T01:35:44.402Z,10.73
2023-03-18T01:36:44.290Z,10.73
2023-03-18T01:37:44.312Z,10.74
2023-03-18T01:38:44.260Z,10.73
2023-03-18T01:39:44.258Z,10.74
2023-03-18T01:40:44.229Z,10.73
2023-03-18T01:41:44.286Z,10.74
2023-03-18T01:42:44.193Z,10.74
2023-03-18T01:43:44.230Z,10.71
2023-03-18T01:44:44.185Z,10.73
2023-03-18T01:45:44.227Z,10.71
2023-03-18T01:46:44.166Z,10.70
2023-03-18T01:47:44.157Z,10.68
2023-03-18T01:48:44.155Z,10.67
2023-03-18T01:49:44.138Z,10.66
2023-03-18T01:50:44.097Z,10.66
2023-03-18T01:51:44.110Z,10.64
2023-03-18T01:52:44.074Z,10.63
2023-03-18T01:53:44.110Z,10.63
2023-03-18T01:54:44.047Z,10.61
2023-03-18T01:55:44.056Z,10.60
2023-03-18T01:56:44.042Z,10.60
2023-03-18T01:57:44.064Z,10.56
2023-03-18T01:58:43.989Z,10.55
2023-03-18T01:59:44.001Z,10.55
2023-03-18T02:00:43.986Z,10.53
2023-03-18T02:01:43.973Z,10.51
2023-03-18T02:02:43.952Z,10.51
2023-03-18T02:03:43.954Z,10.51
2023-03-18T02:04:43.921Z,10.47
2023-03-18T02:05:43.914Z,10.47
2023-03-18T02:06:43.891Z,10.45
2023-03-18T02:07:43.964Z,10.45
2023-03-18T02:08:43.861Z,10.45
2023-03-18T02:09:43.864Z,10.45
2023-03-18T02:10:43.832Z,10.45
2023-03-18T02:11:43.857Z,10.44
2023-03-18T02:12:43.835Z,10.44
2023-03-18T02:13:43.835Z,10.44
2023-03-18T02:14:43.794Z,10.42
2023-03-18T02:15:43.793Z,10.44
2023-03-18T02:16:43.801Z,10.44
2023-03-18T02:17:43.748Z,10.42
2023-03-18T02:18:43.720Z,10.42
2023-03-18T02:19:43.765Z,10.42
2023-03-18T02:20:43.689Z,10.42
2023-03-18T02:21:43.799Z,10.41
2023-03-18T02:22:43.668Z,10.42
2023-03-18T02:23:43.684Z,10.42
2023-03-18T02:24:43.644Z,10.42
2023-03-18T02:25:43.677Z,10.42
2023-03-18T02:26:43.722Z,10.44
2023-03-18T02:27:43.615Z,10.42
2023-03-18T02:28:43.592Z,10.42
2023-03-18T02:29:43.635Z,10.42
2023-03-18T02:30:43.657Z,10.44
2023-03-18T02:31:43.588Z,10.44
2023-03-18T02:32:43.563Z,10.42
2023-03-18T02:33:43.548Z,10.42
2023-03-18T02:34:43.579Z,10.44
2023-03-18T02:35:43.562Z,10.44
2023-03-18T02:36:43.523Z,10.44
2023-03-18T02:37:43.519Z,10.44
2023-03-18T02:38:43.448Z,10.42
2023-03-18T02:39:43.513Z,10.42
2023-03-18T02:40:43.445Z,10.42
2023-03-18T02:41:43.496Z,10.44
2023-03-18T02:42:43.430Z,10.42
2023-03-18T02:43:43.429Z,10.42
2023-03-18T02:44:43.367Z,10.41
2023-03-18T02:45:43.402Z,10.42
2023-03-18T02:46:43.388Z,10.42
2023-03-18T02:47:43.377Z,10.42
2023-03-18T02:48:43.340Z,10.45
2023-03-18T02:49:43.341Z,10.42
2023-03-18T02:50:43.309Z,10.41
2023-03-18T02:51:43.357Z,10.34
2023-03-18T02:52:43.271Z,10.29
2023-03-18T02:53:43.285Z,10.27
2023-03-18T02:54:43.256Z,10.23
2023-03-18T02:55:43.249Z,10.18
2023-03-18T02:56:43.264Z,10.14
2023-03-18T02:57:43.231Z,10.05
2023-03-18T02:58:43.206Z,9.99
2023-03-18T02:59:43.218Z,9.93
2023-03-18T03:00:43.173Z,9.87
2023-03-18T03:01:43.372Z,9.79
2023-03-18T03:02:43.305Z,9.74
2023-03-18T03:03:43.241Z,9.69
2023-03-18T03:04:43.130Z,9.64
2023-03-18T03:05:43.127Z,9.58
2023-03-18T03:06:43.173Z,9.57
2023-03-18T03:07:43.147Z,9.54
2023-03-18T03:08:43.083Z,9.54
2023-03-18T03:09:43.068Z,9.56
2023-03-18T03:10:43.021Z,9.57
2023-03-18T03:11:43.065Z,9.58
2023-03-18T03:12:43.049Z,9.56
2023-03-18T03:13:43.026Z,9.56
2023-03-18T03:14:43.024Z,9.57
2023-03-18T03:15:43.049Z,9.56
2023-03-18T03:16:42.970Z,9.56
2023-03-18T03:17:43.000Z,9.56
2023-03-18T03:18:42.955Z,9.57
2023-03-18T03:19:42.961Z,9.56
2023-03-18T03:20:42.896Z,9.56
2023-03-18T03:21:42.914Z,9.53
2023-03-18T03:22:42.877Z,9.53
2023-03-18T03:23:42.905Z,9.48
2023-03-18T03:24:42.860Z,9.46
2023-03-18T03:25:42.857Z,9.43
2023-03-18T03:26:42.830Z,9.43
2023-03-18T03:27:42.840Z,9.43
2023-03-18T03:28:42.830Z,9.42
2023-03-18T03:29:42.818Z,9.42
2023-03-18T03:30:42.776Z,9.39
2023-03-18T03:31:42.793Z,9.38
2023-03-18T03:32:42.790Z,9.35
2023-03-18T03:33:42.790Z,9.33
2023-03-18T03:34:42.728Z,9.29
2023-03-18T03:35:42.742Z,9.26
2023-03-18T03:36:42.696Z,9.24
2023-03-18T03:37:42.751Z,9.21
2023-03-18T03:38:42.695Z,9.18
2023-03-18T03:39:42.676Z,9.15
2023-03-18T03:40:42.636Z,9.14
2023-03-18T03:41:42.641Z,9.11
2023-03-18T03:42:42.652Z,9.08
2023-03-18T03:43:42.620Z,9.04
2023-03-18T03:44:42.590Z,9.01
2023-03-18T03:45:42.611Z,8.99
2023-03-18T03:46:42.600Z,8.95
2023-03-18T03:47:42.633Z,8.91
2023-03-18T03:48:42.568Z,8.89
2023-03-18T03:49:42.556Z,8.89
2023-03-18T03:50:42.527Z,8.86
2023-03-18T03:51:42.553Z,8.86
2023-03-18T03:52:42.466Z,8.86
2023-03-18T03:53:42.477Z,8.84
2023-03-18T03:54:42.457Z,8.86
2023-03-18T03:55:42.479Z,8.86
2023-03-18T03:56:42.441Z,8.89
2023-03-18T03:57:42.398Z,8.91
2023-03-18T03:58:42.431Z,8.92
2023-03-18T03:59:42.400Z,8.95
2023-03-18T04:00:42.397Z,8.98
2023-03-18T04:01:42.409Z,9.01
2023-03-18T04:02:42.435Z,9.02
2023-03-18T04:03:42.333Z,9.02
2023-03-18T04:04:42.337Z,9.05
2023-03-18T04:05:42.310Z,9.01
2023-03-18T04:06:42.384Z,8.98
2023-03-18T04:07:42.272Z,8.92
2023-03-18T04:08:42.283Z,8.84
2023-03-18T04:09:42.261Z,8.81
2023-03-18T04:10:42.274Z,8.76
2023-03-18T04:11:42.249Z,8.71
2023-03-18T04:12:42.245Z,8.66
2023-03-18T04:13:42.211Z,8.62
2023-03-18T04:14:42.220Z,8.61
2023-03-18T04:15:42.309Z,8.61
2023-03-18T04:16:42.200Z,8.61
2023-03-18T04:17:42.142Z,8.61
2023-03-18T04:18:42.161Z,8.63
2023-03-18T04:19:42.110Z,8.65
2023-03-18T04:20:42.134Z,8.68
2023-03-18T04:21:42.083Z,8.73
2023-03-18T04:22:42.158Z,8.76
2023-03-18T04:23:42.058Z,8.80
2023-03-18T04:24:42.069Z,8.83
2023-03-18T04:25:42.055Z,8.87
2023-03-18T04:26:42.065Z,8.89
2023-03-18T04:27:42.034Z,8.89
2023-03-18T04:28:42.040Z,8.87
2023-03-18T04:29:41.982Z,8.89
2023-03-18T04:30:41.988Z,8.91
2023-03-18T04:31:42.012Z,8.91
2023-03-18T04:32:42.064Z,8.91
2023-03-18T04:33:41.935Z,8.92
2023-03-18T04:34:41.962Z,8.92
2023-03-18T04:35:41.924Z,8.95
2023-03-18T04:36:41.928Z,8.95
2023-03-18T04:37:41.888Z,8.94
2023-03-18T04:38:41.884Z,8.94
2023-03-18T04:39:41.869Z,8.95
2023-03-18T04:40:41.882Z,8.94
2023-03-18T04:41:41.837Z,8.94
2023-03-18T04:42:41.834Z,8.95
2023-03-18T04:43:41.843Z,8.95
2023-03-18T04:44:41.850Z,8.96
2023-03-18T04:45:41.776Z,8.96
2023-03-18T04:46:41.824Z,9.01
2023-03-18T04:47:41.740Z,9.02
2023-03-18T04:48:41.744Z,9.04
2023-03-18T04:49:41.738Z,9.05
2023-03-18T04:50:41.724Z,9.08
2023-03-18T04:51:41.698Z,9.11
2023-03-18T04:52:41.709Z,9.10
2023-03-18T04:53:41.662Z,9.11
2023-03-18T04:54:41.703Z,9.13
2023-03-18T04:55:41.651Z,9.11
2023-03-18T04:56:41.668Z,9.10
2023-03-18T04:57:41.617Z,9.10
2023-03-18T04:58:41.608Z,9.08
2023-03-18T04:59:41.583Z,9.10
2023-03-18T05:00:41.616Z,9.04
2023-03-18T05:01:41.586Z,9.04
2023-03-18T05:02:41.578Z,9.02
2023-03-18T05:03:41.561Z,9.01
2023-03-18T05:04:41.557Z,9.01
2023-03-18T05:05:41.521Z,9.01
2023-03-18T05:06:41.555Z,8.99
2023-03-18T05:07:41.478Z,8.99
2023-03-18T05:08:41.498Z,8.98
2023-03-18T05:09:41.486Z,8.96
2023-03-18T05:10:41.502Z,8.95
2023-03-18T05:11:41.453Z,8.92
2023-03-18T05:12:41.429Z,8.91
2023-03-18T05:13:41.396Z,8.87
2023-03-18T05:14:41.404Z,8.86
2023-03-18T05:15:41.359Z,8.83
2023-03-18T05:16:41.440Z,8.80
2023-03-18T05:17:41.369Z,8.77
2023-03-18T05:18:41.362Z,8.74
2023-03-18T05:19:41.325Z,8.73
2023-03-18T05:20:41.343Z,8.70
2023-03-18T05:21:41.339Z,8.70
2023-03-18T05:22:41.306Z,8.68
2023-03-18T05:23:41.267Z,8.65
2023-03-18T05:24:41.272Z,8.63
2023-03-18T05:25:41.235Z,8.62
2023-03-18T05:26:41.271Z,8.61
2023-03-18T05:27:41.210Z,8.59
2023-03-18T05:28:41.238Z,8.56
2023-03-18T05:29:41.192Z,8.53
2023-03-18T05:30:41.209Z,8.52
2023-03-18T05:31:41.310Z,8.55
2023-03-18T05:32:41.196Z,8.56
2023-03-18T05:33:41.154Z,8.53
2023-03-18T05:34:41.148Z,8.48
2023-03-18T05:35:41.136Z,8.48
2023-03-18T05:36:41.112Z,8.44
2023-03-18T05:37:41.104Z,8.40
2023-03-18T05:38:41.095Z,8.37
2023-03-18T05:39:42.496Z,8.36
2023-03-18T05:40:41.057Z,8.36
2023-03-18T05:41:41.124Z,8.34
2023-03-18T05:42:55.068Z,8.33
2023-03-18T05:43:41.029Z,8.33
2023-03-18T05:44:41.014Z,8.28
2023-03-18T05:45:41.237Z,8.15
2023-03-18T05:46:41.037Z,7.98
2023-03-18T05:47:40.969Z,7.69
2023-03-18T05:48:40.964Z,7.34
2023-03-18T05:49:40.928Z,7.07
2023-03-18T05:50:40.965Z,6.84
2023-03-18T05:51:40.901Z,6.69
2023-03-18T05:52:40.907Z,6.61
2023-03-18T05:53:40.867Z,6.58
2023-03-18T05:54:40.919Z,6.58
2023-03-18T05:55:40.856Z,6.62
2023-03-18T05:56:40.857Z,6.69
2023-03-18T05:57:40.820Z,6.76
2023-03-18T05:58:40.832Z,6.85
2023-03-18T05:59:40.835Z,6.97
2023-03-18T06:00:40.814Z,7.03
2023-03-18T06:01:40.766Z,7.10
2023-03-18T06:02:40.797Z,7.20
2023-03-18T06:03:40.803Z,7.23
2023-03-18T06:04:40.770Z,7.25
2023-03-18T06:05:40.711Z,7.30
2023-03-18T06:06:40.821Z,7.34
2023-03-18T06:07:40.693Z,7.35
2023-03-18T06:08:40.735Z,7.35
2023-03-18T06:09:40.673Z,7.39
2023-03-18T06:10:40.678Z,7.43
2023-03-18T06:11:40.654Z,7.48
2023-03-18T06:12:40.666Z,7.50
2023-03-18T06:13:40.609Z,7.53
2023-03-18T06:14:40.648Z,7.55
2023-03-18T06:15:40.591Z,7.57
2023-03-18T06:16:40.670Z,7.60
2023-03-18T06:17:40.584Z,7.63
2023-03-18T06:18:40.569Z,7.68
2023-03-18T06:19:40.555Z,7.72
2023-03-18T06:20:40.568Z,7.77
2023-03-18T06:21:40.532Z,7.80
2023-03-18T06:22:40.511Z,7.79
2023-03-18T06:23:40.483Z,7.72
2023-03-18T06:24:40.521Z,7.67
2023-03-18T06:25:40.495Z,7.61
2023-03-18T06:26:40.470Z,7.52
2023-03-18T06:27:40.422Z,7.46
2023-03-18T06:28:40.538Z,7.37
2023-03-18T06:29:40.426Z,7.23
2023-03-18T06:30:40.480Z,7.13
2023-03-18T06:31:40.363Z,7.10
2023-03-18T06:32:40.594Z,7.10
2023-03-18T06:33:40.381Z,7.13
2023-03-18T06:34:40.345Z,7.17
2023-03-18T06:35:40.365Z,7.24
2023-03-18T06:36:40.333Z,7.28
2023-03-18T06:37:40.294Z,7.27
2023-03-18T06:38:40.331Z,7.28
2023-03-18T06:39:41.371Z,7.28
2023-03-18T06:40:40.291Z,7.27
2023-03-18T06:41:40.248Z,7.27
2023-03-18T06:42:40.252Z,7.25
2023-03-18T06:43:40.212Z,7.28
2023-03-18T06:44:40.292Z,7.32
2023-03-18T06:45:40.188Z,7.42
2023-03-18T06:46:42.657Z,7.60
2023-03-18T06:47:40.179Z,7.72
2023-03-18T06:48:40.190Z,7.85
2023-03-18T06:49:40.154Z,8.00
2023-03-18T06:50:40.162Z,8.12
2023-03-18T06:51:40.123Z,8.16
2023-03-18T06:52:40.134Z,8.12
2023-03-18T06:53:40.112Z,8.11
2023-03-18T06:54:40.098Z,8.05
2023-03-18T06:55:40.055Z,8.02
2023-03-18T06:56:40.084Z,8.00
2023-03-18T06:57:40.030Z,7.98
2023-03-18T06:58:40.074Z,7.95
2023-03-18T06:59:40.033Z,7.93
2023-03-18T07:00:40.033Z,7.92
2023-03-18T07:01:40.068Z,7.93
2023-03-18T07:02:40.049Z,7.95
2023-03-18T07:03:39.954Z,8.01
2023-03-18T07:04:40.027Z,8.05
2023-03-18T07:05:39.922Z,8.08
2023-03-18T07:06:39.979Z,8.15
2023-03-18T07:07:39.910Z,8.20
2023-03-18T07:08:39.937Z,8.29
2023-03-18T07:09:39.861Z,8.38
2023-03-18T07:10:39.878Z,8.45
2023-03-18T07:11:39.871Z,8.52
2023-03-18T07:12:39.872Z,8.59
2023-03-18T07:13:39.837Z,8.66
2023-03-18T07:14:39.836Z,8.76
2023-03-18T07:15:39.841Z,8.84
2023-03-18T07:16:39.838Z,8.94
2023-03-18T07:17:39.800Z,9.14
2023-03-18T07:18:39.785Z,9.38
2023-03-18T07:19:39.757Z,9.61
2023-03-18T07:20:40.667Z,9.86
2023-03-18T07:21:39.735Z,10.08
2023-03-18T07:22:39.740Z,10.30
2023-03-18T07:23:39.704Z,10.44
2023-03-18T07:24:39.766Z,10.61
2023-03-18T07:25:39.720Z,10.74
2023-03-18T07:26:39.713Z,10.81
2023-03-18T07:27:39.704Z,10.85
2023-03-18T07:28:39.678Z,10.89
2023-03-18T07:29:39.625Z,11.02
2023-03-18T07:30:39.653Z,11.11
2023-03-18T07:31:40.203Z,11.21
2023-03-18T07:32:39.711Z,11.28
2023-03-18T07:33:39.590Z,11.37
2023-03-18T07:34:39.559Z,11.40
2023-03-18T07:35:39.541Z,11.37
2023-03-18T07:36:39.552Z,11.35
2023-03-18T07:37:39.512Z,11.33
2023-03-18T07:38:39.548Z,11.37
2023-03-18T07:39:39.506Z,11.40
2023-03-18T07:40:39.477Z,11.51
2023-03-18T07:41:39.441Z,11.70
2023-03-18T07:42:39.462Z,11.94
2023-03-18T07:43:39.440Z,12.16
2023-03-18T07:44:39.489Z,12.41
2023-03-18T07:45:39.509Z,12.65
2023-03-18T07:46:39.548Z,12.92
2023-03-18T07:47:39.366Z,13.10
2023-03-18T07:48:39.373Z,13.20
2023-03-18T07:49:39.356Z,13.28
2023-03-18T07:50:39.440Z,13.42
2023-03-18T07:51:39.323Z,13.55
2023-03-18T07:52:39.326Z,13.62
2023-03-18T07:53:39.281Z,13.69
2023-03-18T07:54:39.305Z,13.69
2023-03-18T07:55:39.281Z,13.69
2023-03-18T07:56:39.281Z,13.70
2023-03-18T07:57:39.309Z,13.70
2023-03-18T07:58:39.260Z,13.67
2023-03-18T07:59:39.224Z,13.51
2023-03-18T08:00:39.222Z,13.32
2023-03-18T08:01:39.180Z,13.29
2023-03-18T08:02:39.215Z,13.29
2023-03-18T08:03:39.169Z,13.39
2023-03-18T08:04:39.182Z,13.59
2023-03-18T08:05:39.114Z,13.77
2023-03-18T08:06:39.133Z,13.82
2023-03-18T08:07:39.129Z,13.97
2023-03-18T08:08:39.133Z,14.03
2023-03-18T08:09:39.093Z,14.09
2023-03-18T08:10:39.065Z,14.22
2023-03-18T08:11:39.055Z,14.28
2023-03-18T08:12:52.212Z,14.35
2023-03-18T08:13:39.057Z,14.46
2023-03-18T08:14:38.995Z,14.42
2023-03-18T08:15:39.026Z,14.46
2023-03-18T08:16:39.028Z,14.52
2023-03-18T08:17:38.982Z,14.47
2023-03-18T08:18:38.954Z,14.39
2023-03-18T08:19:38.989Z,14.35
2023-03-18T08:20:38.925Z,14.46
2023-03-18T08:21:38.927Z,14.54
2023-03-18T08:22:38.916Z,14.61
2023-03-18T08:23:38.933Z,14.69
2023-03-18T08:24:38.921Z,14.68
2023-03-18T08:25:38.898Z,14.69
2023-03-18T08:26:38.864Z,14.73
2023-03-18T08:27:38.846Z,14.70
2023-03-18T08:28:38.829Z,14.62
2023-03-18T08:29:38.847Z,14.46
2023-03-18T08:30:38.798Z,14.45
2023-03-18T08:31:38.891Z,14.55
2023-03-18T08:32:38.806Z,14.68
2023-03-18T08:33:38.781Z,14.75
2023-03-18T08:34:38.751Z,14.81
2023-03-18T08:35:38.828Z,14.72
2023-03-18T08:36:38.707Z,14.69
2023-03-18T08:37:38.716Z,14.62
2023-03-18T08:38:38.680Z,14.69
2023-03-18T08:39:38.710Z,14.86
2023-03-18T08:40:38.688Z,15.02
2023-03-18T08:41:38.684Z,15.25
2023-03-18T08:42:38.669Z,15.36
2023-03-18T08:43:39.219Z,15.31
2023-03-18T08:44:38.631Z,15.38
2023-03-18T08:45:38.657Z,15.39
2023-03-18T08:46:38.635Z,15.31
2023-03-18T08:47:38.656Z,15.28
2023-03-18T08:48:38.558Z,15.31
2023-03-18T08:49:38.578Z,15.35
2023-03-18T08:50:38.560Z,15.50
2023-03-18T08:51:38.557Z,15.53
2023-03-18T08:52:38.512Z,15.62
2023-03-18T08:53:38.508Z,15.62
2023-03-18T08:54:38.474Z,15.57
2023-03-18T08:55:38.520Z,15.34
2023-03-18T08:56:38.488Z,15.28
2023-03-18T08:57:38.465Z,15.32
2023-03-18T08:58:38.434Z,15.46
2023-03-18T08:59:38.454Z,15.54
2023-03-18T09:00:38.417Z,15.60
2023-03-18T09:01:38.508Z,15.74
2023-03-18T09:02:38.374Z,15.90
2023-03-18T09:03:38.415Z,16.01
2023-03-18T09:04:38.387Z,16.04
2023-03-18T09:05:38.344Z,16.01
2023-03-18T09:06:38.313Z,16.01
2023-03-18T09:07:38.354Z,15.93
2023-03-18T09:08:38.333Z,15.89
2023-03-18T09:09:43.577Z,15.92
2023-03-18T09:10:38.348Z,16.02
2023-03-18T09:11:38.258Z,16.12
2023-03-18T09:12:38.224Z,16.17
2023-03-18T09:13:39.261Z,16.24
2023-03-18T09:14:38.212Z,16.27
2023-03-18T09:15:38.211Z,16.28
2023-03-18T09:16:38.218Z,16.28
2023-03-18T09:17:53.435Z,16.39
2023-03-18T09:18:38.185Z,16.31
2023-03-18T09:19:38.205Z,16.41
2023-03-18T09:20:38.119Z,16.49
2023-03-18T09:21:38.149Z,16.52
2023-03-18T09:22:38.105Z,16.56
2023-03-18T09:23:38.138Z,16.57
2023-03-18T09:24:38.144Z,16.61
2023-03-18T09:25:38.078Z,16.73
2023-03-18T09:26:38.050Z,16.76
2023-03-18T09:27:38.041Z,16.89
2023-03-18T09:28:38.019Z,16.94
2023-03-18T09:29:38.054Z,16.98
2023-03-18T09:30:38.227Z,17.03
2023-03-18T09:31:38.006Z,17.03
2023-03-18T09:32:37.961Z,17.15
2023-03-18T09:33:37.969Z,17.21
2023-03-18T09:34:37.939Z,17.31
2023-03-18T09:35:38.091Z,17.31
2023-03-18T09:36:37.909Z,17.14
2023-03-18T09:37:37.962Z,17.01
2023-03-18T09:38:38.033Z,16.96
2023-03-18T09:39:37.900Z,17.00
2023-03-18T09:40:38.543Z,17.03
2023-03-18T09:41:37.874Z,17.07
2023-03-18T09:42:37.832Z,17.06
2023-03-18T09:43:37.848Z,16.98
2023-03-18T09:44:37.857Z,16.96
2023-03-18T09:45:37.850Z,16.85
2023-03-18T09:46:37.869Z,16.70
2023-03-18T09:47:37.816Z,16.49
2023-03-18T09:48:37.755Z,16.34
2023-03-18T09:49:37.778Z,16.23
2023-03-18T09:50:37.759Z,16.15
2023-03-18T09:51:37.784Z,16.11
2023-03-18T09:52:37.721Z,16.08
2023-03-18T09:53:38.674Z,16.08
2023-03-18T09:54:37.675Z,16.07
2023-03-18T09:55:37.680Z,16.11
2023-03-18T09:56:37.647Z,16.14
2023-03-18T09:57:37.690Z,16.14
2023-03-18T09:58:37.599Z,16.08
2023-03-18T09:59:37.657Z,16.07
2023-03-18T10:00:37.614Z,16.15
2023-03-18T10:01:37.756Z,16.27
2023-03-18T10:02:37.551Z,16.34
2023-03-18T10:03:37.793Z,16.49
2023-03-18T10:04:37.562Z,16.61
2023-03-18T10:05:37.561Z,16.64
2023-03-18T10:06:37.545Z,16.63
2023-03-18T10:07:37.516Z,16.73
2023-03-18T10:08:37.537Z,16.81
2023-03-18T10:09:37.534Z,16.88
2023-03-18T10:10:37.522Z,16.94
2023-03-18T10:11:37.487Z,16.93
2023-03-18T10:12:37.439Z,16.91
2023-03-18T10:13:37.451Z,16.78
2023-03-18T10:14:37.416Z,16.73
2023-03-18T10:15:37.601Z,16.75
2023-03-18T10:16:37.377Z,16.73
2023-03-18T10:17:37.382Z,16.75
2023-03-18T10:18:37.343Z,16.64
2023-03-18T10:19:37.426Z,16.60
2023-03-18T10:20:37.377Z,16.53
2023-03-18T10:21:37.344Z,16.53
2023-03-18T10:22:37.310Z,16.53
2023-03-18T10:23:37.314Z,16.50
2023-03-18T10:24:37.270Z,16.52
2023-03-18T10:25:37.335Z,16.58
2023-03-18T10:26:37.266Z,16.67
2023-03-18T10:27:37.258Z,16.82
2023-03-18T10:28:37.237Z,16.91
2023-03-18T10:29:37.253Z,16.86
2023-03-18T10:30:37.602Z,16.73
2023-03-18T10:31:37.293Z,16.71
2023-03-18T10:32:49.112Z,16.68
2023-03-18T10:33:37.230Z,16.66
2023-03-18T10:34:37.166Z,16.58
2023-03-18T10:35:37.256Z,16.63
2023-03-18T10:36:37.133Z,16.68
2023-03-18T10:37:37.138Z,16.68
2023-03-18T10:38:37.092Z,16.71
2023-03-18T10:39:37.143Z,16.67
2023-03-18T10:40:37.063Z,16.58
2023-03-18T10:41:37.101Z,16.56
2023-03-18T10:42:37.070Z,16.57
2023-03-18T10:43:37.038Z,16.53
2023-03-18T10:44:37.036Z,16.52
2023-03-18T10:45:37.024Z,16.50
2023-03-18T10:46:37.184Z,16.49
2023-03-18T10:47:37.083Z,16.45
2023-03-18T10:48:36.985Z,16.41
2023-03-18T10:49:36.986Z,16.39
2023-03-18T10:50:37.172Z,16.43
2023-03-18T10:51:37.011Z,16.45
2023-03-18T10:52:36.940Z,16.42
2023-03-18T10:53:36.951Z,16.50
2023-03-18T10:54:36.900Z,16.56
2023-03-18T10:55:36.878Z,16.60
2023-03-18T10:56:36.897Z,16.61
2023-03-18T10:57:36.873Z,16.63
2023-03-18T10:58:36.856Z,16.63
2023-03-18T10:59:36.816Z,16.64
2023-03-18T11:00:36.845Z,16.64
2023-03-18T11:01:36.844Z,16.70
2023-03-18T11:02:36.904Z,16.75
2023-03-18T11:03:36.891Z,16.81
2023-03-18T11:04:36.835Z,16.88
2023-03-18T11:05:36.794Z,16.91
2023-03-18T11:06:36.850Z,16.94
2023-03-18T11:07:36.701Z,16.93
2023-03-18T11:08:36.703Z,16.82
2023-03-18T11:09:36.687Z,16.85
2023-03-18T11:10:36.882Z,16.89
2023-03-18T11:11:36.652Z,16.94
2023-03-18T11:12:36.669Z,17.08
2023-03-18T11:13:36.623Z,17.19
2023-03-18T11:14:37.219Z,17.21
2023-03-18T11:15:36.601Z,17.19
2023-03-18T11:16:36.672Z,17.23
2023-03-18T11:17:36.583Z,17.34
2023-03-18T11:18:36.679Z,17.41
2023-03-18T11:19:36.562Z,17.49
2023-03-18T11:20:36.587Z,17.51
2023-03-18T11:21:36.520Z,17.54
2023-03-18T11:22:36.541Z,17.63
2023-03-18T11:23:36.501Z,17.71
2023-03-18T11:24:36.672Z,17.72
2023-03-18T11:25:36.486Z,17.63
2023-03-18T11:26:36.485Z,17.59
2023-03-18T11:27:36.484Z,17.56
2023-03-18T11:28:36.450Z,17.56
2023-03-18T11:29:36.446Z,17.48
2023-03-18T11:30:36.548Z,17.43
2023-03-18T11:31:36.452Z,17.37
2023-03-18T11:32:36.479Z,17.31
2023-03-18T11:33:36.358Z,17.22
2023-03-18T11:34:36.378Z,17.16
2023-03-18T11:35:36.410Z,17.14
2023-03-18T11:36:36.354Z,17.15
2023-03-18T11:37:36.298Z,17.12
2023-03-18T11:38:36.315Z,17.14
2023-03-18T11:39:36.280Z,17.16
2023-03-18T11:40:36.312Z,17.26
2023-03-18T11:41:36.293Z,17.37
2023-03-18T11:42:36.286Z,17.31
2023-03-18T11:43:36.225Z,17.33
2023-03-18T11:44:36.253Z,17.36
2023-03-18T11:45:36.228Z,17.40
2023-03-18T11:46:36.285Z,17.43
2023-03-18T11:47:36.149Z,17.41
2023-03-18T11:48:36.220Z,17.38
2023-03-18T11:49:36.156Z,17.46
2023-03-18T11:50:36.179Z,17.59
2023-03-18T11:51:36.116Z,17.72
2023-03-18T11:52:36.143Z,17.72
2023-03-18T11:53:36.164Z,17.72
2023-03-18T11:54:36.129Z,17.75
2023-03-18T11:55:36.092Z,17.71
2023-03-18T11:56:36.079Z,17.74
2023-03-18T11:57:36.029Z,17.75
2023-03-18T11:58:36.104Z,17.79
2023-03-18T11:59:36.040Z,17.86
2023-03-18T12:00:36.050Z,17.89
2023-03-18T12:01:36.030Z,17.89
2023-03-18T12:02:35.995Z,17.86
2023-03-18T12:03:35.952Z,17.82
2023-03-18T12:04:36.609Z,17.84
2023-03-18T12:05:35.949Z,17.86
2023-03-18T12:06:35.941Z,17.89
2023-03-18T12:07:38.154Z,17.87
2023-03-18T12:08:35.912Z,17.84
2023-03-18T12:09:35.882Z,17.82
2023-03-18T12:10:35.918Z,17.84
2023-03-18T12:11:35.918Z,17.84
2023-03-18T12:12:35.911Z,17.79
2023-03-18T12:13:37.516Z,17.75
2023-03-18T12:14:35.826Z,17.72
2023-03-18T12:15:35.796Z,17.70
2023-03-18T12:16:35.842Z,17.71
2023-03-18T12:17:35.802Z,17.71
2023-03-18T12:18:35.801Z,17.72
2023-03-18T12:19:35.740Z,17.71
2023-03-18T12:20:35.926Z,17.74
2023-03-18T12:21:35.718Z,17.74
2023-03-18T12:22:35.740Z,17.78
2023-03-18T12:23:35.753Z,17.81
2023-03-18T12:24:35.689Z,17.81
2023-03-18T12:25:35.663Z,17.79
2023-03-18T12:26:35.698Z,17.79
2023-03-18T12:27:35.630Z,17.81
2023-03-18T12:28:35.669Z,17.87
2023-03-18T12:29:35.649Z,17.89
2023-03-18T12:30:35.606Z,17.93
2023-03-18T12:31:35.728Z,17.95
2023-03-18T12:32:35.712Z,17.96
2023-03-18T12:33:35.599Z,18.03
2023-03-18T12:34:35.571Z,18.10
2023-03-18T12:35:35.968Z,18.17
2023-03-18T12:36:35.547Z,18.21
2023-03-18T12:37:35.545Z,18.27
2023-03-18T12:38:35.508Z,18.30
2023-03-18T12:39:35.526Z,18.29
2023-03-18T12:40:35.597Z,18.29
2023-03-18T12:41:37.214Z,18.27
2023-03-18T12:42:35.440Z,18.30
2023-03-18T12:43:35.506Z,18.32
2023-03-18T12:44:35.415Z,18.36
2023-03-18T12:45:35.529Z,18.41
2023-03-18T12:46:35.389Z,18.45
2023-03-18T12:47:37.137Z,18.51
2023-03-18T12:48:44.161Z,18.57
2023-03-18T12:49:35.407Z,18.62
2023-03-18T12:50:35.328Z,18.62
2023-03-18T12:51:35.349Z,18.57
2023-03-18T12:52:35.353Z,18.51
2023-03-18T12:53:35.325Z,18.48
2023-03-18T12:54:35.298Z,18.44
2023-03-18T12:55:35.474Z,18.44
2023-03-18T12:56:35.248Z,18.44
2023-03-18T12:57:35.296Z,18.41
2023-03-18T12:58:35.231Z,18.32
2023-03-18T12:59:35.256Z,18.27
2023-03-18T13:00:35.707Z,18.21
2023-03-18T13:01:35.252Z,18.17